createdAt,value
2023-02-06T00:00:30.785Z,98.13
2023-02-06T00:01:21.351Z,98.02
2023-02-06T00:02:16.693Z,97.91
2023-02-06T00:03:20.259Z,97.91
2023-02-06T00:04:17.582Z,97.91
2023-02-06T00:05:30.582Z,97.91
2023-02-06T00:06:22.185Z,98.02
2023-02-06T00:07:21.605Z,98.13
2023-02-06T00:08:23.183Z,98.13
2023-02-06T00:09:17.370Z,98.13
2023-02-06T00:10:37.634Z,98.13
2023-02-06T00:11:32.914Z,98.24
2023-02-06T00:12:23.500Z,98.24
2023-02-06T00:13:19.293Z,98.24
2023-02-06T00:14:16.116Z,98.34
2023-02-06T00:15:16.044Z,98.55
2023-02-06T00:16:14.992Z,98.87
2023-02-06T00:17:19.617Z,99.08
2023-02-06T00:18:15.921Z,99.19
2023-02-06T00:19:22.173Z,99.29
2023-02-06T00:21:47.104Z,99.51
2023-02-06T00:22:19.472Z,99.55
2023-02-06T00:23:03.786Z,99.51
2023-02-06T00:25:01.612Z,99.61
2023-02-06T00:25:16.989Z,99.61
2023-02-06T00:26:18.295Z,99.51
2023-02-06T00:27:31.827Z,99.44
2023-02-06T00:28:42.777Z,99.19
2023-02-06T00:29:14.063Z,99.19
2023-02-06T00:30:15.070Z,99.08
2023-02-06T00:31:57.748Z,98.97
2023-02-06T00:32:07.154Z,98.87
2023-02-06T00:33:33.960Z,98.87
2023-02-06T00:34:07.115Z,98.87
2023-02-06T00:35:37.411Z,98.87
2023-02-06T00:36:17.972Z,98.76
2023-02-06T00:37:13.203Z,98.76
2023-02-06T00:38:06.417Z,98.76
2023-02-06T00:39:06.226Z,98.76
2023-02-06T00:40:06.200Z,98.76
2023-02-06T00:41:06.189Z,98.76
2023-02-06T00:42:06.174Z,98.76
2023-02-06T00:43:06.189Z,98.76
2023-02-06T00:44:06.162Z,98.66
2023-02-06T00:45:06.150Z,98.76
2023-02-06T00:46:06.172Z,98.70
2023-02-06T00:47:06.143Z,98.87
2023-02-06T00:48:06.113Z,98.97
2023-02-06T00:49:06.103Z,99.08
2023-02-06T00:50:06.091Z,99.19
2023-02-06T00:51:06.087Z,99.29
2023-02-06T00:52:06.065Z,99.40
2023-02-06T00:53:06.074Z,99.61
2023-02-06T00:54:06.038Z,99.82
2023-02-06T00:55:06.022Z,99.82
2023-02-06T00:56:06.032Z,99.99
2023-02-06T00:57:06.006Z,99.99
2023-02-06T00:58:05.996Z,99.99
2023-02-06T00:59:05.980Z,99.99
2023-02-06T01:00:05.960Z,99.99
2023-02-06T01:01:05.938Z,99.99
2023-02-06T01:02:05.943Z,99.99
2023-02-06T01:03:05.933Z,99.99
2023-02-06T01:04:05.922Z,99.99
2023-02-06T01:05:05.895Z,99.99
2023-02-06T01:06:05.884Z,99.99
2023-02-06T01:07:05.880Z,99.99
2023-02-06T01:08:05.923Z,99.99
2023-02-06T01:09:05.840Z,99.99
2023-02-06T01:10:05.838Z,99.99
2023-02-06T01:11:05.824Z,99.99
2023-02-06T01:12:05.809Z,99.99
2023-02-06T01:13:05.821Z,99.99
2023-02-06T01:14:05.789Z,99.99
2023-02-06T01:15:05.769Z,99.99
2023-02-06T01:16:05.818Z,99.99
2023-02-06T01:17:05.738Z,99.99
2023-02-06T01:18:05.741Z,99.99
2023-02-06T01:19:05.710Z,99.99
2023-02-06T01:20:05.713Z,99.99
2023-02-06T01:21:05.689Z,99.99
2023-02-06T01:22:05.688Z,99.99
2023-02-06T01:23:05.686Z,99.99
2023-02-06T01:24:05.665Z,99.99
2023-02-06T01:25:05.637Z,99.99
2023-02-06T01:26:05.637Z,99.99
2023-02-06T01:27:05.619Z,99.99
2023-02-06T01:28:05.641Z,99.99
2023-02-06T01:29:05.598Z,99.99
2023-02-06T01:30:05.591Z,99.99
2023-02-06T01:31:05.674Z,99.99
2023-02-06T01:32:05.578Z,99.99
2023-02-06T01:33:05.556Z,99.99
2023-02-06T01:34:05.537Z,99.99
2023-02-06T01:35:05.639Z,99.99
2023-02-06T01:36:05.512Z,99.99
2023-02-06T01:37:05.487Z,99.99
2023-02-06T01:38:05.498Z,99.99
2023-02-06T01:39:05.466Z,99.99
2023-02-06T01:40:05.549Z,99.88
2023-02-06T01:41:05.438Z,99.99
2023-02-06T01:42:05.437Z,99.99
2023-02-06T01:43:06.921Z,99.99
2023-02-06T01:44:05.674Z,99.99
2023-02-06T01:45:05.390Z,99.99
2023-02-06T01:46:05.389Z,99.99
2023-02-06T01:47:05.359Z,99.99
2023-02-06T01:48:05.367Z,99.99
2023-02-06T01:49:07.016Z,99.99
2023-02-06T01:50:05.341Z,99.99
2023-02-06T01:51:05.314Z,99.99
2023-02-06T01:52:05.313Z,99.99
2023-02-06T01:53:05.304Z,99.99
2023-02-06T01:54:05.301Z,99.95
2023-02-06T01:55:05.270Z,99.84
2023-02-06T01:56:05.269Z,99.67
2023-02-06T01:57:05.242Z,99.57
2023-02-06T01:58:05.249Z,99.41
2023-02-06T01:59:05.225Z,99.31
2023-02-06T02:00:05.418Z,99.20
2023-02-06T02:01:05.307Z,99.10
2023-02-06T02:02:05.241Z,98.99
2023-02-06T02:03:05.178Z,98.99
2023-02-06T02:04:05.158Z,98.88
2023-02-06T02:05:05.142Z,98.78
2023-02-06T02:06:06.109Z,98.93
2023-02-06T02:07:05.120Z,99.10
2023-02-06T02:08:05.110Z,99.20
2023-02-06T02:09:05.108Z,99.41
2023-02-06T02:10:05.261Z,99.52
2023-02-06T02:11:05.060Z,99.73
2023-02-06T02:12:05.100Z,99.84
2023-02-06T02:13:05.062Z,99.95
2023-02-06T02:14:05.022Z,99.99
2023-02-06T02:15:05.025Z,99.99
2023-02-06T02:16:05.060Z,99.99
2023-02-06T02:17:05.003Z,99.99
2023-02-06T02:18:04.995Z,99.99
2023-02-06T02:19:05.014Z,99.99
2023-02-06T02:20:04.954Z,99.99
2023-02-06T02:21:04.947Z,99.99
2023-02-06T02:22:04.926Z,99.99
2023-02-06T02:23:04.936Z,99.99
2023-02-06T02:24:04.907Z,99.99
2023-02-06T02:25:04.897Z,99.99
2023-02-06T02:26:04.879Z,99.99
2023-02-06T02:27:04.878Z,99.99
2023-02-06T02:28:06.368Z,99.99
2023-02-06T02:29:04.867Z,99.99
2023-02-06T02:30:04.830Z,99.99
2023-02-06T02:31:04.844Z,99.99
2023-02-06T02:32:04.799Z,99.99
2023-02-06T02:33:04.817Z,99.99
2023-02-06T02:34:04.786Z,99.99
2023-02-06T02:35:04.983Z,99.99
2023-02-06T02:36:04.765Z,99.99
2023-02-06T02:37:04.759Z,99.99
2023-02-06T02:38:04.749Z,99.99
2023-02-06T02:39:04.753Z,99.99
2023-02-06T02:40:06.160Z,99.99
2023-02-06T02:41:04.717Z,99.99
2023-02-06T02:42:04.699Z,99.99
2023-02-06T02:43:04.705Z,99.99
2023-02-06T02:44:04.650Z,99.99
2023-02-06T02:45:04.688Z,99.99
2023-02-06T02:46:04.934Z,99.99
2023-02-06T02:47:04.643Z,99.99
2023-02-06T02:48:04.623Z,99.99
2023-02-06T02:49:04.605Z,99.99
2023-02-06T02:50:05.858Z,99.99
2023-02-06T02:51:04.577Z,99.99
2023-02-06T02:52:04.547Z,99.99
2023-02-06T02:53:04.557Z,99.99
2023-02-06T02:54:04.538Z,99.99
2023-02-06T02:55:04.516Z,99.99
2023-02-06T02:56:04.524Z,99.99
2023-02-06T02:57:04.772Z,99.99
2023-02-06T02:58:04.501Z,99.99
2023-02-06T03:00:13.689Z,99.99
2023-02-06T03:01:13.705Z,99.99
2023-02-06T03:02:13.667Z,99.99
2023-02-06T03:03:13.660Z,99.99
2023-02-06T03:04:13.634Z,99.99
2023-02-06T03:05:13.624Z,99.99
2023-02-06T03:06:13.600Z,99.99
2023-02-06T03:07:13.590Z,99.99
2023-02-06T03:08:13.610Z,99.99
2023-02-06T03:09:13.568Z,99.99
2023-02-06T03:10:13.550Z,99.99
2023-02-06T03:11:13.558Z,99.99
2023-02-06T03:12:13.535Z,99.99
2023-02-06T03:13:13.521Z,99.99
2023-02-06T03:14:13.502Z,99.99
2023-02-06T03:15:13.490Z,99.99
2023-02-06T03:16:13.503Z,99.99
2023-02-06T03:17:13.462Z,99.99
2023-02-06T03:18:13.463Z,99.99
2023-02-06T03:19:13.451Z,99.99
2023-02-06T03:20:13.421Z,99.99
2023-02-06T03:21:13.422Z,99.99
2023-02-06T03:22:13.412Z,99.99
2023-02-06T03:23:13.403Z,99.99
2023-02-06T03:24:13.378Z,99.99
2023-02-06T03:25:13.383Z,99.99
2023-02-06T03:26:13.354Z,99.99
2023-02-06T03:27:13.370Z,99.99
2023-02-06T03:28:13.381Z,99.99
2023-02-06T03:29:13.331Z,99.99
2023-02-06T03:30:13.313Z,99.99
2023-02-06T03:31:13.303Z,99.99
2023-02-06T03:32:13.287Z,99.99
2023-02-06T03:33:13.298Z,99.99
2023-02-06T03:34:13.258Z,99.99
2023-02-06T03:35:13.253Z,99.99
2023-02-06T03:36:13.228Z,99.99
2023-02-06T03:37:13.234Z,99.99
2023-02-06T03:38:13.205Z,99.99
2023-02-06T03:39:13.197Z,99.99
2023-02-06T03:40:13.193Z,99.99
2023-02-06T03:41:13.176Z,99.99
2023-02-06T03:42:13.180Z,99.99
2023-02-06T03:43:13.150Z,99.99
2023-02-06T03:44:13.151Z,99.99
2023-02-06T03:45:13.126Z,99.99
2023-02-06T03:46:13.176Z,99.99
2023-02-06T03:47:13.119Z,99.99
2023-02-06T03:48:13.087Z,99.99
2023-02-06T03:49:13.073Z,99.99
2023-02-06T03:50:13.065Z,99.99
2023-02-06T03:51:13.048Z,99.99
2023-02-06T03:52:13.019Z,99.99
2023-02-06T03:53:13.013Z,99.99
2023-02-06T03:54:13.008Z,99.99
2023-02-06T03:55:12.999Z,99.99
2023-02-06T03:56:12.988Z,99.99
2023-02-06T03:57:12.982Z,99.99
2023-02-06T03:58:12.949Z,99.99
2023-02-06T03:59:12.951Z,99.99
2023-02-06T04:00:12.920Z,99.99
2023-02-06T04:01:12.944Z,99.99
2023-02-06T04:02:12.908Z,99.99
2023-02-06T04:03:12.890Z,99.99
2023-02-06T04:04:12.883Z,99.99
2023-02-06T04:05:12.881Z,99.99
2023-02-06T04:06:12.890Z,99.99
2023-02-06T04:07:13.061Z,99.99
2023-02-06T04:08:12.829Z,99.99
2023-02-06T04:09:12.830Z,99.99
2023-02-06T04:10:12.805Z,99.99
2023-02-06T04:11:12.801Z,99.99
2023-02-06T04:12:12.784Z,99.99
2023-02-06T04:13:12.778Z,99.99
2023-02-06T04:14:12.773Z,99.99
2023-02-06T04:15:12.754Z,99.99
2023-02-06T04:16:12.766Z,99.99
2023-02-06T04:17:12.731Z,99.99
2023-02-06T04:18:14.169Z,99.99
2023-02-06T04:19:12.710Z,99.99
2023-02-06T04:20:12.675Z,99.99
2023-02-06T04:21:12.665Z,99.99
2023-02-06T04:22:12.655Z,99.99
2023-02-06T04:23:12.643Z,99.99
2023-02-06T04:24:12.647Z,99.99
2023-02-06T04:25:12.626Z,99.99
2023-02-06T04:26:12.618Z,99.99
2023-02-06T04:27:12.592Z,99.99
2023-02-06T04:28:12.635Z,99.99
2023-02-06T04:29:12.581Z,99.99
2023-02-06T04:30:12.553Z,99.99
2023-02-06T04:31:12.614Z,99.99
2023-02-06T04:32:12.544Z,99.99
2023-02-06T04:33:12.549Z,99.99
2023-02-06T04:34:12.526Z,99.99
2023-02-06T04:35:13.294Z,99.99
2023-02-06T04:36:12.476Z,99.99
2023-02-06T04:37:12.472Z,99.99
2023-02-06T04:38:12.444Z,99.99
2023-02-06T04:39:12.469Z,99.99
2023-02-06T04:40:12.435Z,99.99
2023-02-06T04:41:12.415Z,99.99
2023-02-06T04:42:12.398Z,99.99
2023-02-06T04:43:12.385Z,99.99
2023-02-06T04:44:12.386Z,99.99
2023-02-06T04:45:12.368Z,99.99
2023-02-06T04:46:12.375Z,99.99
2023-02-06T04:47:12.347Z,99.99
2023-02-06T04:48:12.567Z,99.99
2023-02-06T04:49:12.344Z,99.99
2023-02-06T04:50:12.312Z,99.99
2023-02-06T04:51:12.306Z,99.99
2023-02-06T04:52:12.539Z,99.99
2023-02-06T04:53:12.278Z,99.99
2023-02-06T04:54:12.254Z,99.99
2023-02-06T04:55:12.248Z,99.99
2023-02-06T04:56:12.222Z,99.99
2023-02-06T04:57:12.212Z,99.99
2023-02-06T04:58:12.188Z,99.99
2023-02-06T04:59:12.194Z,99.99
2023-02-06T05:00:12.184Z,99.99
2023-02-06T05:01:12.990Z,99.99
2023-02-06T05:02:12.221Z,99.99
2023-02-06T05:03:12.145Z,99.99
2023-02-06T05:04:12.148Z,99.99
2023-02-06T05:05:12.145Z,99.99
2023-02-06T05:06:12.094Z,99.99
2023-02-06T05:07:12.106Z,99.99
2023-02-06T05:08:12.334Z,99.99
2023-02-06T05:09:12.089Z,99.99
2023-02-06T05:10:12.061Z,99.99
2023-02-06T05:11:12.032Z,99.99
2023-02-06T05:12:14.346Z,99.99
2023-02-06T05:13:12.005Z,99.99
2023-02-06T05:14:11.989Z,99.99
2023-02-06T05:15:12.019Z,99.99
2023-02-06T05:16:12.162Z,99.99
2023-02-06T05:17:11.948Z,99.99
2023-02-06T05:18:11.943Z,99.99
2023-02-06T05:19:11.925Z,99.99
2023-02-06T05:20:11.923Z,99.99
2023-02-06T05:21:11.899Z,99.99
2023-02-06T05:22:11.892Z,99.99
2023-02-06T05:23:11.874Z,99.99
2023-02-06T05:24:11.876Z,99.99
2023-02-06T05:25:11.853Z,99.99
2023-02-06T05:26:11.838Z,99.99
2023-02-06T05:27:11.812Z,99.99
2023-02-06T05:28:11.825Z,99.99
2023-02-06T05:29:11.793Z,99.99
2023-02-06T05:30:11.802Z,99.99
2023-02-06T05:31:11.862Z,99.99
2023-02-06T05:32:11.774Z,99.99
2023-02-06T05:33:11.742Z,99.99
2023-02-06T05:34:11.732Z,99.99
2023-02-06T05:35:11.728Z,99.99
2023-02-06T05:36:11.716Z,99.99
2023-02-06T05:37:11.691Z,99.99
2023-02-06T05:38:11.695Z,99.99
2023-02-06T05:39:11.664Z,99.99
2023-02-06T05:40:11.666Z,99.99
2023-02-06T05:41:11.656Z,99.99
2023-02-06T05:42:11.637Z,99.99
2023-02-06T05:43:11.613Z,99.99
2023-02-06T05:44:11.620Z,99.99
2023-02-06T05:45:11.619Z,99.99
2023-02-06T05:46:11.834Z,99.99
2023-02-06T05:47:11.569Z,99.99
2023-02-06T05:48:11.575Z,99.99
2023-02-06T05:49:13.838Z,99.99
2023-02-06T05:50:14.708Z,99.99
2023-02-06T05:57:14.939Z,99.99
2023-02-06T05:57:36.734Z,99.99
2023-02-06T05:58:19.704Z,99.99
2023-02-06T05:59:19.691Z,99.99
2023-02-06T06:00:19.684Z,99.99
2023-02-06T06:01:19.668Z,99.99
2023-02-06T06:02:19.643Z,99.99
2023-02-06T06:03:19.646Z,99.99
2023-02-06T06:04:19.681Z,99.99
2023-02-06T06:05:19.622Z,99.99
2023-02-06T06:06:19.618Z,99.99
2023-02-06T06:07:19.592Z,99.99
2023-02-06T06:08:19.573Z,99.99
2023-02-06T06:09:19.568Z,99.99
2023-02-06T06:10:19.555Z,99.99
2023-02-06T06:11:19.836Z,99.99
2023-02-06T06:12:19.517Z,99.99
2023-02-06T06:13:19.509Z,99.99
2023-02-06T06:14:19.485Z,99.99
2023-02-06T06:15:19.499Z,99.99
2023-02-06T06:16:19.566Z,99.99
2023-02-06T06:17:19.715Z,99.99
2023-02-06T06:18:19.437Z,99.99
2023-02-06T06:19:19.445Z,99.99
2023-02-06T06:20:19.428Z,99.99
2023-02-06T06:21:19.415Z,99.99
2023-02-06T06:22:19.400Z,99.99
2023-02-06T06:23:19.391Z,99.99
2023-02-06T06:24:19.376Z,99.99
2023-02-06T06:25:19.374Z,99.99
2023-02-06T06:26:19.341Z,99.99
2023-02-06T06:27:19.352Z,99.99
2023-02-06T06:28:19.381Z,99.99
2023-02-06T06:29:19.318Z,99.99
2023-02-06T06:30:19.299Z,99.99
2023-02-06T06:31:19.356Z,99.99
2023-02-06T06:32:19.262Z,99.99
2023-02-06T06:33:19.259Z,99.99
2023-02-06T06:34:19.266Z,99.99
2023-02-06T06:35:19.255Z,99.99
2023-02-06T06:36:19.219Z,99.99
2023-02-06T06:37:19.205Z,99.99
2023-02-06T06:38:19.194Z,99.99
2023-02-06T06:39:19.186Z,99.99
2023-02-06T06:40:19.173Z,99.99
2023-02-06T06:41:19.170Z,99.99
2023-02-06T06:42:19.165Z,99.99
2023-02-06T06:43:19.129Z,99.99
2023-02-06T06:44:19.112Z,99.99
2023-02-06T06:45:19.150Z,99.99
2023-02-06T06:46:19.089Z,99.99
2023-02-06T06:47:19.082Z,99.99
2023-02-06T06:48:19.064Z,99.99
2023-02-06T06:49:19.087Z,99.99
2023-02-06T06:50:19.058Z,99.99
2023-02-06T06:51:19.041Z,99.99
2023-02-06T06:52:24.827Z,99.99
2023-02-06T06:53:20.021Z,99.99
2023-02-06T06:54:20.480Z,99.99
2023-02-06T06:55:18.989Z,99.99
2023-02-06T06:56:18.952Z,99.99
2023-02-06T06:57:18.960Z,99.99
2023-02-06T06:58:18.928Z,99.99
2023-02-06T06:59:18.922Z,99.99
2023-02-06T07:00:18.912Z,99.99
2023-02-06T07:01:18.973Z,99.99
2023-02-06T07:02:18.900Z,99.99
2023-02-06T07:03:18.916Z,99.99
2023-02-06T07:04:18.861Z,99.99
2023-02-06T07:05:18.853Z,99.99
2023-02-06T07:06:18.848Z,99.99
2023-02-06T07:07:18.857Z,99.99
2023-02-06T07:08:19.610Z,99.99
2023-02-06T07:09:18.801Z,99.99
2023-02-06T07:10:18.800Z,99.99
2023-02-06T07:11:18.790Z,99.99
2023-02-06T07:12:18.751Z,99.99
2023-02-06T07:13:18.751Z,99.99
2023-02-06T07:14:18.731Z,99.99
2023-02-06T07:15:18.725Z,99.99
2023-02-06T07:16:18.765Z,99.99
2023-02-06T07:17:18.698Z,99.99
2023-02-06T07:18:18.685Z,99.99
2023-02-06T07:19:19.451Z,99.99
2023-02-06T07:20:18.663Z,99.99
2023-02-06T07:21:18.664Z,99.99
2023-02-06T07:22:18.651Z,99.99
2023-02-06T07:23:18.624Z,99.99
2023-02-06T07:24:18.581Z,99.99
2023-02-06T07:25:18.586Z,99.99
2023-02-06T07:26:18.591Z,99.99
2023-02-06T07:27:18.592Z,99.99
2023-02-06T07:28:18.598Z,99.99
2023-02-06T07:29:18.566Z,99.99
2023-02-06T07:30:18.536Z,99.99
2023-02-06T07:31:18.580Z,99.99
2023-02-06T07:32:18.504Z,99.99
2023-02-06T07:33:18.493Z,99.99
2023-02-06T07:34:19.954Z,99.99
2023-02-06T07:35:18.470Z,99.99
2023-02-06T07:36:18.611Z,99.99
2023-02-06T07:37:18.448Z,99.99
2023-02-06T07:38:18.425Z,99.99
2023-02-06T07:39:18.432Z,99.99
2023-02-06T07:40:18.408Z,99.99
2023-02-06T07:41:18.405Z,99.99
2023-02-06T07:42:18.385Z,99.99
2023-02-06T07:43:18.395Z,99.99
2023-02-06T07:44:18.355Z,99.99
2023-02-06T07:45:18.357Z,99.99
2023-02-06T07:46:18.384Z,99.99
2023-02-06T07:47:18.475Z,99.99
2023-02-06T07:48:18.315Z,99.99
2023-02-06T07:49:18.298Z,99.99
2023-02-06T07:50:18.285Z,99.99
2023-02-06T07:51:18.318Z,99.99
2023-02-06T07:52:18.256Z,99.99
2023-02-06T07:53:18.292Z,99.99
2023-02-06T07:54:20.708Z,99.99
2023-02-06T07:55:18.246Z,99.99
2023-02-06T07:56:18.285Z,99.99
2023-02-06T07:57:19.179Z,99.99
2023-02-06T07:58:18.199Z,99.99
2023-02-06T07:59:18.181Z,99.99
2023-02-06T08:00:18.428Z,99.99
2023-02-06T08:01:18.171Z,99.99
2023-02-06T08:02:18.157Z,99.99
2023-02-06T08:03:18.153Z,99.99
2023-02-06T08:04:18.213Z,99.99
2023-02-06T08:05:18.105Z,99.99
2023-02-06T08:06:18.097Z,99.99
2023-02-06T08:07:18.911Z,99.99
2023-02-06T08:08:18.058Z,99.99
2023-02-06T08:09:18.058Z,99.99
2023-02-06T08:10:18.034Z,99.99
2023-02-06T08:11:18.045Z,99.99
2023-02-06T08:12:18.023Z,99.99
2023-02-06T08:13:17.998Z,99.99
2023-02-06T08:14:17.979Z,99.99
2023-02-06T08:15:17.969Z,99.99
2023-02-06T08:16:17.972Z,99.99
2023-02-06T08:17:19.668Z,99.99
2023-02-06T08:18:18.093Z,99.99
2023-02-06T08:19:17.928Z,99.99
2023-02-06T08:20:17.909Z,99.99
2023-02-06T08:21:17.921Z,99.99
2023-02-06T08:22:17.883Z,99.99
2023-02-06T08:23:19.676Z,99.99
2023-02-06T08:24:17.839Z,99.99
2023-02-06T08:25:17.846Z,99.99
2023-02-06T08:26:17.854Z,99.99
2023-02-06T08:27:17.834Z,99.99
2023-02-06T08:28:17.845Z,99.99
2023-02-06T08:29:17.808Z,99.99
2023-02-06T08:30:17.796Z,99.99
2023-02-06T08:31:17.852Z,99.99
2023-02-06T08:32:17.750Z,99.99
2023-02-06T08:33:17.744Z,99.99
2023-02-06T08:34:17.736Z,99.99
2023-02-06T08:35:17.738Z,99.99
2023-02-06T08:36:17.740Z,99.99
2023-02-06T08:37:17.733Z,99.99
2023-02-06T08:38:17.716Z,99.99
2023-02-06T08:39:17.681Z,99.99
2023-02-06T08:40:17.654Z,99.99
2023-02-06T08:41:17.664Z,99.99
2023-02-06T08:42:17.651Z,99.99
2023-02-06T08:43:18.572Z,99.99
2023-02-06T08:44:17.627Z,99.99
2023-02-06T08:45:17.596Z,99.99
2023-02-06T08:46:17.624Z,99.99
2023-02-06T08:47:17.572Z,99.99
2023-02-06T08:48:17.563Z,99.99
2023-02-06T08:49:17.564Z,99.99
2023-02-06T08:50:17.532Z,99.99
2023-02-06T08:51:17.524Z,99.99
2023-02-06T08:52:17.524Z,99.99
2023-02-06T08:53:17.490Z,99.99
2023-02-06T08:54:17.486Z,99.99
2023-02-06T08:55:17.475Z,99.99
2023-02-06T08:56:17.446Z,99.99
2023-02-06T08:57:17.454Z,99.99
2023-02-06T08:58:17.434Z,99.99
2023-02-06T08:59:17.430Z,99.99
2023-02-06T09:00:17.395Z,99.99
2023-02-06T09:01:17.488Z,99.99
2023-02-06T09:02:17.496Z,99.99
2023-02-06T09:03:17.377Z,99.99
2023-02-06T09:04:17.364Z,99.99
2023-02-06T09:05:17.356Z,99.99
2023-02-06T09:06:17.330Z,99.99
2023-02-06T09:07:17.429Z,99.99
2023-02-06T09:08:17.306Z,99.99
2023-02-06T09:09:17.306Z,99.99
2023-02-06T09:10:27.021Z,99.99
2023-02-06T09:11:18.315Z,99.99
2023-02-06T09:12:17.285Z,99.99
2023-02-06T09:13:17.254Z,99.99
2023-02-06T09:14:18.053Z,99.99
2023-02-06T09:15:17.229Z,99.99
2023-02-06T09:16:17.278Z,99.99
2023-02-06T09:17:17.207Z,99.99
2023-02-06T09:18:17.189Z,99.99
2023-02-06T09:19:17.209Z,99.99
2023-02-06T09:20:17.162Z,99.99
2023-02-06T09:21:17.184Z,99.99
2023-02-06T09:22:17.181Z,99.99
2023-02-06T09:23:17.116Z,99.99
2023-02-06T09:24:17.187Z,99.99
2023-02-06T09:25:17.115Z,99.99
2023-02-06T09:26:17.087Z,99.99
2023-02-06T09:27:17.100Z,99.99
2023-02-06T09:28:17.211Z,99.99
2023-02-06T09:29:17.080Z,99.99
2023-02-06T09:30:17.141Z,99.99
2023-02-06T09:31:17.157Z,99.99
2023-02-06T09:32:17.015Z,99.99
2023-02-06T09:33:16.993Z,99.99
2023-02-06T09:34:17.049Z,99.99
2023-02-06T09:35:16.989Z,99.99
2023-02-06T09:36:16.994Z,99.99
2023-02-06T09:37:17.032Z,99.99
2023-02-06T09:38:17.090Z,99.99
2023-02-06T09:39:16.929Z,99.99
2023-02-06T09:40:17.053Z,99.99
2023-02-06T09:41:17.090Z,99.99
2023-02-06T09:42:17.091Z,99.99
2023-02-06T09:43:16.905Z,99.99
2023-02-06T09:44:17.000Z,99.99
2023-02-06T09:45:16.969Z,99.99
2023-02-06T09:46:16.929Z,99.99
2023-02-06T09:47:16.924Z,99.99
2023-02-06T09:48:16.871Z,99.99
2023-02-06T09:49:16.857Z,99.99
2023-02-06T09:50:16.780Z,99.99
2023-02-06T09:51:16.798Z,99.99
2023-02-06T09:52:16.789Z,99.99
2023-02-06T09:53:16.756Z,99.99
2023-02-06T09:54:16.756Z,99.99
2023-02-06T09:55:16.774Z,99.99
2023-02-06T09:56:16.714Z,99.99
2023-02-06T09:57:16.686Z,99.99
2023-02-06T09:58:16.691Z,99.99
2023-02-06T09:59:17.640Z,99.99
2023-02-06T10:00:16.665Z,99.99
2023-02-06T10:01:16.691Z,99.99
2023-02-06T10:02:16.642Z,99.99
2023-02-06T10:03:16.616Z,99.99
2023-02-06T10:04:16.661Z,99.99
2023-02-06T10:05:16.602Z,99.99
2023-02-06T10:06:16.599Z,99.99
2023-02-06T10:07:16.628Z,99.99
2023-02-06T10:08:16.572Z,99.99
2023-02-06T10:09:16.551Z,99.99
2023-02-06T10:10:16.540Z,99.99
2023-02-06T10:11:16.512Z,99.99
2023-02-06T10:12:16.533Z,99.99
2023-02-06T10:13:16.490Z,99.99
2023-02-06T10:14:16.490Z,99.99
2023-02-06T10:15:16.465Z,99.99
2023-02-06T10:16:16.484Z,99.99
2023-02-06T10:17:16.462Z,99.99
2023-02-06T10:18:17.539Z,99.99
2023-02-06T10:19:16.648Z,99.99
2023-02-06T10:20:16.755Z,99.99
2023-02-06T10:21:16.379Z,99.99
2023-02-06T10:22:16.385Z,99.99
2023-02-06T10:23:16.632Z,99.99
2023-02-06T10:24:16.355Z,99.99
2023-02-06T10:25:16.333Z,99.99
2023-02-06T10:26:16.329Z,99.99
2023-02-06T10:27:16.316Z,99.99
2023-02-06T10:28:16.334Z,99.99
2023-02-06T10:29:16.941Z,99.99
2023-02-06T10:30:16.284Z,99.99
2023-02-06T10:31:16.398Z,99.99
2023-02-06T10:32:16.260Z,99.99
2023-02-06T10:33:25.243Z,99.99
2023-02-06T10:34:17.246Z,99.99
2023-02-06T10:35:16.218Z,99.99
2023-02-06T10:36:16.215Z,99.99
2023-02-06T10:37:16.196Z,99.99
2023-02-06T10:38:17.145Z,99.99
2023-02-06T10:39:16.188Z,99.99
2023-02-06T10:40:16.223Z,99.99
2023-02-06T10:41:16.147Z,99.99
2023-02-06T10:42:16.149Z,99.99
2023-02-06T10:43:16.131Z,99.99
2023-02-06T10:44:16.111Z,99.99
2023-02-06T10:45:21.945Z,99.99
2023-02-06T10:46:18.070Z,99.99
2023-02-06T10:47:16.150Z,99.99
2023-02-06T10:48:16.080Z,99.99
2023-02-06T10:49:16.047Z,99.99
2023-02-06T10:50:16.096Z,99.99
2023-02-06T10:51:16.054Z,99.99
2023-02-06T10:52:16.039Z,99.99
2023-02-06T10:53:16.023Z,99.99
2023-02-06T10:54:15.990Z,99.99
2023-02-06T10:55:15.971Z,99.99
2023-02-06T10:56:15.969Z,99.99
2023-02-06T10:57:15.961Z,99.99
2023-02-06T10:58:15.942Z,99.99
2023-02-06T10:59:15.923Z,99.99
2023-02-06T11:00:15.954Z,99.99
2023-02-06T11:01:25.429Z,99.99
2023-02-06T11:02:16.931Z,99.99
2023-02-06T11:03:15.883Z,99.99
2023-02-06T11:04:15.895Z,99.99
2023-02-06T11:05:15.852Z,99.99
2023-02-06T11:06:15.839Z,99.99
2023-02-06T11:07:15.832Z,99.99
2023-02-06T11:08:15.822Z,99.99
2023-02-06T11:09:15.802Z,99.99
2023-02-06T11:10:15.858Z,99.99
2023-02-06T11:11:15.773Z,99.99
2023-02-06T11:12:15.764Z,99.99
2023-02-06T11:13:15.770Z,99.99
2023-02-06T11:14:15.744Z,99.99
2023-02-06T11:15:15.730Z,99.99
2023-02-06T11:16:15.724Z,99.99
2023-02-06T11:17:15.702Z,99.99
2023-02-06T11:18:15.704Z,99.99
2023-02-06T11:19:15.683Z,99.99
2023-02-06T11:20:15.714Z,99.99
2023-02-06T11:21:15.662Z,99.99
2023-02-06T11:22:15.677Z,99.99
2023-02-06T11:23:15.634Z,99.99
2023-02-06T11:24:15.845Z,99.99
2023-02-06T11:25:15.594Z,99.99
2023-02-06T11:26:16.545Z,99.99
2023-02-06T11:27:15.585Z,99.99
2023-02-06T11:28:15.652Z,99.99
2023-02-06T11:29:15.549Z,99.99
2023-02-06T11:30:15.537Z,99.99
2023-02-06T11:31:15.553Z,99.99
2023-02-06T11:32:15.536Z,99.99
2023-02-06T11:33:15.511Z,99.99
2023-02-06T11:34:15.490Z,99.99
2023-02-06T11:35:15.474Z,99.99
2023-02-06T11:36:15.466Z,99.99
2023-02-06T11:37:15.453Z,99.99
2023-02-06T11:38:16.296Z,99.99
2023-02-06T11:39:15.552Z,99.99
2023-02-06T11:40:15.512Z,99.99
2023-02-06T11:41:15.415Z,99.99
2023-02-06T11:42:15.419Z,99.99
2023-02-06T11:43:15.386Z,99.99
2023-02-06T11:44:15.364Z,99.99
2023-02-06T11:45:15.357Z,99.99
2023-02-06T11:46:15.414Z,99.99
2023-02-06T11:47:15.572Z,99.99
2023-02-06T11:48:15.356Z,99.99
2023-02-06T11:49:15.300Z,99.99
2023-02-06T11:50:15.321Z,99.99
2023-02-06T11:51:15.290Z,99.99
2023-02-06T11:52:15.294Z,99.99
2023-02-06T11:53:15.261Z,99.99
2023-02-06T11:54:15.240Z,99.99
2023-02-06T11:55:15.228Z,99.99
2023-02-06T11:56:15.230Z,99.99
2023-02-06T11:57:15.201Z,99.99
2023-02-06T11:58:15.215Z,99.99
2023-02-06T11:59:15.181Z,99.99
2023-02-06T12:00:15.159Z,99.99
2023-02-06T12:01:15.182Z,99.99
2023-02-06T12:02:15.177Z,99.99
2023-02-06T12:03:15.157Z,99.99
2023-02-06T12:04:15.118Z,99.99
2023-02-06T12:05:15.112Z,99.99
2023-02-06T12:06:15.095Z,99.99
2023-02-06T12:07:15.091Z,99.99
2023-02-06T12:08:15.084Z,99.99
2023-02-06T12:09:15.042Z,99.99
2023-02-06T12:10:15.348Z,99.99
2023-02-06T12:11:15.045Z,99.99
2023-02-06T12:12:15.012Z,99.99
2023-02-06T12:13:15.045Z,99.99
2023-02-06T12:14:15.001Z,99.99
2023-02-06T12:15:39.768Z,99.99
2023-02-06T12:16:16.010Z,99.99
2023-02-06T12:17:14.942Z,99.99
2023-02-06T12:18:14.970Z,99.99
2023-02-06T12:19:14.939Z,99.99
2023-02-06T12:20:14.923Z,99.99
2023-02-06T12:21:14.902Z,99.99
2023-02-06T12:22:14.956Z,99.99
2023-02-06T12:23:14.901Z,99.99
2023-02-06T12:24:14.875Z,99.99
2023-02-06T12:25:14.862Z,99.99
2023-02-06T12:26:14.854Z,99.99
2023-02-06T12:27:14.835Z,99.99
2023-02-06T12:28:14.870Z,99.99
2023-02-06T12:29:15.054Z,99.99
2023-02-06T12:30:14.805Z,99.99
2023-02-06T12:31:14.912Z,99.99
2023-02-06T12:32:14.777Z,99.99
2023-02-06T12:33:14.783Z,99.99
2023-02-06T12:34:14.773Z,99.99
2023-02-06T12:35:14.744Z,99.99
2023-02-06T12:36:14.713Z,99.99
2023-02-06T12:37:14.711Z,99.99
2023-02-06T12:38:14.694Z,99.99
2023-02-06T12:39:16.603Z,99.99
2023-02-06T12:40:14.684Z,99.99
2023-02-06T12:41:14.652Z,99.99
2023-02-06T12:42:14.643Z,99.99
2023-02-06T12:43:14.627Z,99.99
2023-02-06T12:44:14.621Z,99.99
2023-02-06T12:45:14.602Z,99.99
2023-02-06T12:46:14.638Z,99.99
2023-02-06T12:47:14.580Z,99.99
2023-02-06T12:48:14.562Z,99.99
2023-02-06T12:49:14.557Z,99.99
2023-02-06T12:50:14.553Z,99.99
2023-02-06T12:51:14.521Z,99.99
2023-02-06T12:52:14.551Z,99.99
2023-02-06T12:53:14.501Z,99.99
2023-02-06T12:54:14.512Z,99.99
2023-02-06T12:55:14.477Z,99.99
2023-02-06T12:56:14.471Z,99.99
2023-02-06T12:57:14.706Z,99.99
2023-02-06T12:58:14.441Z,99.99
2023-02-06T12:59:14.439Z,99.99